Time,TemperatureF,DewpointF,PressureIn,WindDirection,WindDirectionDegrees,WindSpeedMPH,WindSpeedGustMPH,Humidity,HourlyPrecipIn,Conditions,Clouds,dailyrainin,SoftwareType,DateUTC
2013-06-18 00:01:00,68.9,68.6,29.93,NW,315,0.0,0.0,99,0.00,RA,,0.00,WeatherDisplay:10.37,2013-06-18 04:01:00,
2013-06-18 00:06:00,68.9,68.6,29.93,NW,315,0.0,0.0,99,0.00,RA,,0.00,WeatherDisplay:10.37,2013-06-18 04:06:00,
2013-06-18 00:11:00,68.9,68.6,29.92,North,0,0.0,0.0,99,0.00,CLR,,0.00,WeatherDisplay:10.37,2013-06-18 04:11:00,
2013-06-18 00:16:00,68.9,68.6,29.92,West,270,0.0,0.0,99,0.00,CLR,,0.00,WeatherDisplay:10.37,2013-06-18 04:16:00,
2013-06-18 00:21:00,68.9,68.6,29.92,North,0,0.0,0.0,99,0.00,CLR,,0.00,WeatherDisplay:10.37,2013-06-18 04:21:00,
2013-06-18 00:26:00,68.9,68.6,29.92,NW,315,0.0,0.0,99,0.00,CLR,,0.00,WeatherDisplay:10.37,2013-06-18 04:26:00,
2013-06-18 00:31:00,68.9,68.6,29.92,NW,315,0.0,0.0,99,0.00,CLR,,0.00,WeatherDisplay:10.37,2013-06-18 04:31:00,
2013-06-18 00:36:00,68.9,68.6,29.92,NW,315,0.0,0.0,99,0.00,CLR,,0.00,WeatherDisplay:10.37,2013-06-18 04:36:00,
2013-06-18 00:41:00,68.7,68.4,29.92,NW,315,0.0,0.0,99,0.00,CLR,,0.00,WeatherDisplay:10.37,2013-06-18 04:41:00,
2013-06-18 00:46:00,68.7,68.4,29.93,NW,315,0.0,0.0,99,0.00,CLR,,0.00,WeatherDisplay:10.37,2013-06-18 04:46:00,
2013-06-18 00:51:00,68.7,68.4,29.93,NW,315,0.0,0.0,99,0.00,CLR,,0.00,WeatherDisplay:10.37,2013-06-18 04:51:00,
2013-06-18 00:56:00,68.7,68.4,29.93,NW,315,0.0,0.0,99,0.00,CLR,,0.00,WeatherDisplay:10.37,2013-06-18 04:56:00,
2013-06-18 01:01:00,68.9,68.6,29.93,NW,315,0.0,0.0,99,0.00,CLR,,0.00,WeatherDisplay:10.37,2013-06-18 05:01:00,
2013-06-18 01:06:00,68.9,68.6,29.93,NW,315,0.0,0.0,99,0.00,CLR,,0.00,WeatherDisplay:10.37,2013-06-18 05:06:00,
2013-06-18 01:11:00,68.9,68.6,29.93,NW,315,0.0,0.0,99,0.00,CLR,,0.00,WeatherDisplay:10.37,2013-06-18 05:11:00,
2013-06-18 01:16:00,68.9,68.6,29.93,North,0,0.0,0.0,99,0.00,CLR,,0.00,WeatherDisplay:10.37,2013-06-18 05:16:00,
2013-06-18 01:21:00,68.9,68.6,29.93,North,0,0.0,0.0,99,0.00,CLR,,0.00,WeatherDisplay:10.37,2013-06-18 05:21:00,
2013-06-18 01:26:00,68.9,68.6,29.93,North,0,0.0,0.0,99,0.00,CLR,,0.00,WeatherDisplay:10.37,2013-06-18 05:26:00,
2013-06-18 01:31:00,68.9,68.6,29.93,East,90,0.0,0.0,99,0.00,CLR,,0.00,WeatherDisplay:10.37,2013-06-18 05:31:00,
2013-06-18 01:36:00,68.9,68.6,29.92,East,90,0.0,0.0,99,0.00,CLR,,0.00,WeatherDisplay:10.37,2013-06-18 05:36:00,
2013-06-18 01:41:00,68.9,68.6,29.92,East,90,0.0,0.0,99,0.00,CLR,,0.00,WeatherDisplay:10.37,2013-06-18 05:41:00,
2013-06-18 01:46:00,68.9,68.6,29.92,East,90,0.0,0.0,99,0.00,CLR,,0.00,WeatherDisplay:10.37,2013-06-18 05:46:00,
2013-06-18 01:51:00,68.9,68.6,29.92,East,90,0.0,0.0,99,0.00,CLR,,0.00,WeatherDisplay:10.37,2013-06-18 05:51:00,
2013-06-18 01:56:00,68.9,68.6,29.92,East,90,0.0,0.0,99,0.00,CLR,,0.00,WeatherDisplay:10.37,2013-06-18 05:56:00,
2013-06-18 02:01:00,68.9,68.6,29.92,NW,315,0.0,0.0,99,0.00,CLR,,0.00,WeatherDisplay:10.37,2013-06-18 06:01:00,
2013-06-18 02:06:00,68.9,68.6,29.91,NW,315,0.0,0.0,99,0.00,CLR,,0.00,WeatherDisplay:10.37,2013-06-18 06:06:00,
2013-06-18 02:11:00,68.9,68.6,29.91,NE,45,0.0,0.0,99,0.00,CLR,,0.00,WeatherDisplay:10.37,2013-06-18 06:11:00,
2013-06-18 02:16:00,68.9,68.6,29.92,NW,315,0.0,0.0,99,0.00,CLR,,0.00,WeatherDisplay:10.37,2013-06-18 06:16:00,
2013-06-18 02:21:00,68.9,68.6,29.92,NW,315,0.0,0.0,99,0.00,CLR,,0.00,WeatherDisplay:10.37,2013-06-18 06:21:00,
2013-06-18 02:26:00,68.9,68.6,29.92,NW,315,0.0,0.0,99,0.00,CLR,,0.00,WeatherDisplay:10.37,2013-06-18 06:26:00,
2013-06-18 02:31:00,68.9,68.6,29.92,NW,315,0.0,0.0,99,0.00,CLR,,0.00,WeatherDisplay:10.37,2013-06-18 06:31:00,
2013-06-18 02:36:00,68.9,68.6,29.92,NW,315,0.0,0.0,99,0.00,CLR,,0.00,WeatherDisplay:10.37,2013-06-18 06:36:00,
2013-06-18 02:41:00,68.9,68.6,29.92,SW,225,0.0,0.0,99,0.00,CLR,,0.00,WeatherDisplay:10.37,2013-06-18 06:41:00,
2013-06-18 02:46:00,68.9,68.6,29.91,SW,225,0.0,0.0,99,0.00,CLR,,0.00,WeatherDisplay:10.37,2013-06-18 06:46:00,
2013-06-18 02:51:00,68.9,68.6,29.91,SW,225,0.0,0.0,99,0.00,CLR,,0.00,WeatherDisplay:10.37,2013-06-18 06:51:00,
2013-06-18 02:56:00,68.9,68.6,29.91,South,180,2.7,2.7,99,0.00,CLR,,0.00,WeatherDisplay:10.37,2013-06-18 06:56:00,
2013-06-18 03:01:00,68.9,68.6,29.91,West,270,0.0,0.0,99,0.00,CLR,,0.00,WeatherDisplay:10.37,2013-06-18 07:01:00,
2013-06-18 03:06:00,69.1,68.8,29.91,SSW,202,2.3,2.7,99,0.00,CLR,,0.00,WeatherDisplay:10.37,2013-06-18 07:06:00,
2013-06-18 03:11:00,69.1,68.8,29.91,SW,225,1.1,0.0,99,0.00,CLR,,0.00,WeatherDisplay:10.37,2013-06-18 07:11:00,
2013-06-18 03:16:00,69.1,68.8,29.91,SSW,202,2.3,2.3,99,0.00,CLR,,0.00,WeatherDisplay:10.37,2013-06-18 07:16:00,
2013-06-18 03:21:00,69.1,68.8,29.91,West,270,0.0,0.0,99,0.00,CLR,,0.00,WeatherDisplay:10.37,2013-06-18 07:21:00,
2013-06-18 03:26:00,69.1,68.8,29.91,West,270,0.0,0.0,99,0.00,CLR,,0.00,WeatherDisplay:10.37,2013-06-18 07:26:00,
2013-06-18 03:31:00,69.1,68.8,29.90,West,270,0.0,0.0,99,0.00,CLR,,0.00,WeatherDisplay:10.37,2013-06-18 07:31:00,
2013-06-18 03:36:00,69.1,68.8,29.90,West,270,0.0,0.0,99,0.00,CLR,,0.00,WeatherDisplay:10.37,2013-06-18 07:36:00,
2013-06-18 03:41:00,69.1,68.8,29.89,West,270,0.0,0.0,99,0.00,CLR,,0.00,WeatherDisplay:10.37,2013-06-18 07:41:00,
2013-06-18 03:46:00,69.1,68.8,29.90,South,180,0.0,0.0,99,0.00,CLR,,0.00,WeatherDisplay:10.37,2013-06-18 07:46:00,
2013-06-18 03:51:00,68.9,68.6,29.89,SW,225,0.0,0.0,99,0.00,CLR,,0.00,WeatherDisplay:10.37,2013-06-18 07:51:00,
2013-06-18 03:56:00,68.9,68.6,29.89,SW,225,1.1,0.0,99,0.00,CLR,,0.00,WeatherDisplay:10.37,2013-06-18 07:56:00,
2013-06-18 04:01:00,68.9,68.6,29.89,West,270,0.0,0.0,99,0.00,CLR,,0.00,WeatherDisplay:10.37,2013-06-18 08:01:00,
2013-06-18 04:06:00,68.9,68.6,29.89,NW,315,0.0,0.0,99,0.00,CLR,,0.00,WeatherDisplay:10.37,2013-06-18 08:06:00,
2013-06-18 04:11:00,68.9,68.6,29.89,NW,315,0.0,0.0,99,0.00,CLR,,0.00,WeatherDisplay:10.37,2013-06-18 08:11:00,
2013-06-18 04:16:00,68.9,68.6,29.88,SW,225,0.0,0.0,99,0.00,CLR,,0.00,WeatherDisplay:10.37,2013-06-18 08:16:00,
2013-06-18 04:21:00,68.9,68.6,29.88,SW,225,0.0,0.0,99,0.00,CLR,,0.00,WeatherDisplay:10.37,2013-06-18 08:21:00,
2013-06-18 04:26:00,68.9,68.6,29.89,SW,225,0.0,0.0,99,0.00,CLR,,0.00,WeatherDisplay:10.37,2013-06-18 08:26:00,
2013-06-18 04:31:00,68.9,68.6,29.88,SE,135,2.3,0.0,99,0.00,CLR,,0.00,WeatherDisplay:10.37,2013-06-18 08:31:00,
2013-06-18 04:36:00,68.9,68.6,29.89,SE,135,0.0,0.0,99,0.00,CLR,,0.00,WeatherDisplay:10.37,2013-06-18 08:36:00,
2013-06-18 04:41:00,68.9,68.6,29.89,SE,135,0.0,0.0,99,0.00,CLR,,0.00,WeatherDisplay:10.37,2013-06-18 08:41:00,
2013-06-18 04:46:00,68.7,68.4,29.89,North,0,0.0,0.0,99,0.00,CLR,,0.00,WeatherDisplay:10.37,2013-06-18 08:46:00,
2013-06-18 04:51:00,68.7,68.4,29.89,North,0,0.0,0.0,99,0.00,CLR,,0.00,WeatherDisplay:10.37,2013-06-18 08:51:00,
2013-06-18 04:56:00,68.9,68.6,29.90,North,0,0.0,0.0,99,0.00,CLR,,0.00,WeatherDisplay:10.37,2013-06-18 08:56:00,
2013-06-18 05:01:00,68.7,68.4,29.90,SW,225,0.0,0.0,99,0.00,CLR,,0.00,WeatherDisplay:10.37,2013-06-18 09:01:00,
2013-06-18 05:06:00,68.9,68.6,29.90,WSW,248,4.6,0.0,99,0.01,RA,,0.01,WeatherDisplay:10.37,2013-06-18 09:06:00,
2013-06-18 05:11:00,68.9,68.6,29.91,South,180,4.6,4.6,99,0.04,RA,,0.04,WeatherDisplay:10.37,2013-06-18 09:11:00,
2013-06-18 05:16:00,69.1,68.8,29.90,South,180,2.3,2.3,99,0.07,RA,,0.07,WeatherDisplay:10.37,2013-06-18 09:16:00,
2013-06-18 05:21:00,69.1,68.8,29.90,WSW,248,2.3,0.0,99,0.07,RA,,0.07,WeatherDisplay:10.37,2013-06-18 09:21:00,
2013-06-18 05:26:00,69.1,68.8,29.90,SW,225,1.1,0.0,99,0.07,,,0.07,WeatherDisplay:10.37,2013-06-18 09:26:00,
2013-06-18 05:31:00,69.1,68.8,29.90,SW,225,0.0,0.0,99,0.07,CLR,,0.07,WeatherDisplay:10.37,2013-06-18 09:31:00,
2013-06-18 05:36:00,69.1,68.8,29.91,West,270,0.0,0.0,99,0.08,RA,,0.08,WeatherDisplay:10.37,2013-06-18 09:36:00,
2013-06-18 05:41:00,69.1,68.8,29.91,West,270,0.0,0.0,99,0.11,RA,,0.12,WeatherDisplay:10.37,2013-06-18 09:41:00,
2013-06-18 05:46:00,69.1,68.8,29.91,SE,135,2.3,0.0,99,0.17,RA,,0.18,WeatherDisplay:10.37,2013-06-18 09:46:00,
2013-06-18 05:51:00,69.1,68.8,29.91,SE,135,0.0,0.0,99,0.22,RA,,0.24,WeatherDisplay:10.37,2013-06-18 09:51:00,
2013-06-18 05:56:00,69.1,68.8,29.91,SW,225,4.6,4.6,99,0.25,RA,,0.25,WeatherDisplay:10.37,2013-06-18 09:56:00,
2013-06-18 06:01:00,69.1,68.8,29.90,SE,135,6.9,6.9,99,0.28,RA,,0.28,WeatherDisplay:10.37,2013-06-18 10:01:00,
2013-06-18 06:06:00,69.1,68.8,29.90,SE,135,6.9,6.9,99,0.27,RA,,0.28,WeatherDisplay:10.37,2013-06-18 10:06:00,
2013-06-18 06:11:00,69.1,68.8,29.90,South,180,6.9,6.9,99,0.32,RA,,0.35,WeatherDisplay:10.37,2013-06-18 10:11:00,
2013-06-18 06:16:00,69.1,68.8,29.90,SW,225,4.6,0.0,99,0.30,RA,,0.37,WeatherDisplay:10.37,2013-06-18 10:16:00,
2013-06-18 06:21:00,69.1,68.8,29.90,South,180,11.5,11.5,99,0.31,RA,,0.38,WeatherDisplay:10.37,2013-06-18 10:21:00,
2013-06-18 06:26:00,69.1,68.8,29.90,South,180,6.9,6.9,99,0.34,RA,,0.41,WeatherDisplay:10.37,2013-06-18 10:26:00,
2013-06-18 06:31:00,69.1,68.8,29.90,South,180,8.1,8.1,99,0.41,RA,,0.48,WeatherDisplay:10.37,2013-06-18 10:31:00,
2013-06-18 06:36:00,69.1,68.8,29.90,South,180,5.8,5.8,99,0.41,RA,,0.50,WeatherDisplay:10.37,2013-06-18 10:36:00,
2013-06-18 06:41:00,69.1,68.8,29.89,South,180,6.9,0.0,99,0.40,RA,,0.51,WeatherDisplay:10.37,2013-06-18 10:41:00,
2013-06-18 06:46:00,69.1,68.8,29.90,South,180,4.6,4.6,99,0.34,RA,,0.51,WeatherDisplay:10.37,2013-06-18 10:46:00,
2013-06-18 06:51:00,69.1,68.8,29.90,South,180,5.8,5.8,99,0.28,CLR,,0.51,WeatherDisplay:10.37,2013-06-18 10:51:00,
2013-06-18 06:56:00,69.3,69.0,29.91,SW,225,5.8,5.8,99,0.26,CLR,,0.51,WeatherDisplay:10.37,2013-06-18 10:56:00,
2013-06-18 07:01:00,69.3,69.0,29.91,SW,225,5.8,5.8,99,0.22,CLR,,0.51,WeatherDisplay:10.37,2013-06-18 11:01:00,
2013-06-18 07:06:00,69.3,69.0,29.91,SW,225,6.9,6.9,99,0.24,RA,,0.52,WeatherDisplay:10.37,2013-06-18 11:06:00,
2013-06-18 07:11:00,69.3,69.0,29.91,South,180,6.9,6.9,99,0.17,RA,,0.53,WeatherDisplay:10.37,2013-06-18 11:11:00,
2013-06-18 07:16:00,69.3,69.0,29.90,SW,225,11.5,0.0,99,0.17,RA,,0.53,WeatherDisplay:10.37,2013-06-18 11:16:00,
2013-06-18 07:21:00,69.4,69.1,29.90,South,180,10.4,10.4,99,0.15,RA,,0.53,WeatherDisplay:10.37,2013-06-18 11:21:00,
2013-06-18 07:26:00,69.4,69.1,29.90,South,180,4.6,4.6,99,0.12,CLR,,0.53,WeatherDisplay:10.37,2013-06-18 11:26:00,
2013-06-18 07:31:00,69.4,69.1,29.90,SW,225,8.1,8.1,99,0.05,CLR,,0.53,WeatherDisplay:10.37,2013-06-18 11:31:00,
2013-06-18 07:36:00,69.4,69.1,29.90,SW,225,6.9,6.9,99,0.04,CLR,,0.53,WeatherDisplay:10.37,2013-06-18 11:36:00,
2013-06-18 07:41:00,69.4,69.1,29.90,South,180,8.1,8.1,99,0.02,CLR,,0.53,WeatherDisplay:10.37,2013-06-18 11:41:00,
2013-06-18 07:46:00,69.4,69.1,29.90,SW,225,5.8,5.8,99,0.02,CLR,,0.53,WeatherDisplay:10.37,2013-06-18 11:46:00,
2013-06-18 07:51:00,69.6,69.3,29.90,SSE,158,6.9,7.0,99,0.02,CLR,,0.53,WeatherDisplay:10.37,2013-06-18 11:51:00,
2013-06-18 07:56:00,69.6,69.3,29.90,SW,225,11.5,11.5,99,0.02,CLR,,0.53,WeatherDisplay:10.37,2013-06-18 11:56:00,
2013-06-18 08:01:00,69.6,69.3,29.90,West,270,4.6,4.6,99,0.02,CLR,,0.53,WeatherDisplay:10.37,2013-06-18 12:01:00,
2013-06-18 08:06:00,69.8,69.2,29.90,West,270,2.3,0.0,98,0.01,CLR,,0.53,WeatherDisplay:10.37,2013-06-18 12:06:00,
2013-06-18 08:11:00,69.8,69.2,29.91,West,270,5.8,5.8,98,0.01,CLR,,0.53,WeatherDisplay:10.37,2013-06-18 12:11:00,
2013-06-18 08:16:00,69.8,69.2,29.90,South,180,10.4,10.4,98,0.00,CLR,,0.53,WeatherDisplay:10.37,2013-06-18 12:16:00,
2013-06-18 08:21:00,69.8,69.2,29.90,SW,225,5.8,5.8,98,0.00,CLR,,0.53,WeatherDisplay:10.37,2013-06-18 12:21:00,
2013-06-18 08:26:00,69.8,69.2,29.90,South,180,11.4,11.4,98,0.00,CLR,,0.53,WeatherDisplay:10.37,2013-06-18 12:26:00,
2013-06-18 08:31:00,69.8,69.2,29.90,SE,135,12.7,12.7,98,0.00,CLR,,0.53,WeatherDisplay:10.37,2013-06-18 12:31:00,
2013-06-18 08:36:00,70.0,69.4,29.90,SW,225,10.4,10.4,98,0.00,CLR,,0.53,WeatherDisplay:10.37,2013-06-18 12:36:00,
2013-06-18 08:41:00,70.0,69.4,29.91,South,180,10.4,10.4,98,0.00,CLR,,0.53,WeatherDisplay:10.37,2013-06-18 12:41:00,
2013-06-18 08:46:00,70.0,69.4,29.91,SE,135,11.5,11.5,98,0.00,CLR,,0.53,WeatherDisplay:10.37,2013-06-18 12:46:00,
2013-06-18 08:51:00,70.0,69.4,29.91,SW,225,11.5,11.5,98,0.00,CLR,,0.53,WeatherDisplay:10.37,2013-06-18 12:51:00,
2013-06-18 08:56:00,70.2,69.6,29.91,SW,225,5.8,5.8,98,0.00,CLR,,0.53,WeatherDisplay:10.37,2013-06-18 12:56:00,
2013-06-18 09:01:00,70.2,69.6,29.91,SW,225,11.5,11.5,98,0.00,CLR,,0.53,WeatherDisplay:10.37,2013-06-18 13:01:00,
2013-06-18 09:06:00,70.3,69.7,29.91,SW,225,10.4,10.4,98,0.00,CLR,,0.53,WeatherDisplay:10.37,2013-06-18 13:06:00,
2013-06-18 09:11:00,70.3,69.7,29.92,WSW,248,8.1,8.1,98,0.00,CLR,,0.53,WeatherDisplay:10.37,2013-06-18 13:11:00,
2013-06-18 09:16:00,70.3,69.7,29.91,West,270,18.4,18.4,98,0.00,CLR,,0.53,WeatherDisplay:10.37,2013-06-18 13:16:00,
2013-06-18 09:21:00,70.3,69.7,29.92,SSW,202,10.4,10.4,98,0.00,CLR,,0.53,WeatherDisplay:10.37,2013-06-18 13:21:00,
2013-06-18 09:26:00,70.3,69.7,29.93,SW,225,5.8,5.8,98,0.00,CLR,,0.53,WeatherDisplay:10.37,2013-06-18 13:26:00,
2013-06-18 09:31:00,70.3,69.7,29.93,WNW,292,12.7,12.7,98,0.00,CLR,,0.53,WeatherDisplay:10.37,2013-06-18 13:31:00,
2013-06-18 09:36:00,70.2,69.6,29.93,South,180,8.1,8.1,98,0.00,CLR,,0.53,WeatherDisplay:10.37,2013-06-18 13:36:00,
2013-06-18 09:41:00,70.3,69.7,29.93,SW,225,8.1,8.1,98,0.01,RA,,0.54,WeatherDisplay:10.37,2013-06-18 13:41:00,
2013-06-18 09:46:00,70.3,69.7,29.92,SW,225,8.1,8.1,98,0.05,RA,,0.58,WeatherDisplay:10.37,2013-06-18 13:46:00,
2013-06-18 09:51:00,70.3,69.7,29.92,South,180,5.8,5.8,98,0.06,RA,,0.59,WeatherDisplay:10.37,2013-06-18 13:51:00,
2013-06-18 09:56:00,70.3,69.7,29.93,South,180,4.6,4.6,98,0.06,RA,,0.59,WeatherDisplay:10.37,2013-06-18 13:56:00,
2013-06-18 10:01:00,70.5,69.9,29.92,SW,225,6.9,6.9,98,0.06,,,0.59,WeatherDisplay:10.37,2013-06-18 14:01:00,
2013-06-18 10:06:00,70.7,70.1,29.92,South,180,10.4,10.4,98,0.06,CLR,,0.59,WeatherDisplay:10.37,2013-06-18 14:06:00,
2013-06-18 10:11:00,70.7,70.1,29.92,South,180,5.8,5.8,98,0.06,CLR,,0.59,WeatherDisplay:10.37,2013-06-18 14:11:00,
2013-06-18 10:16:00,70.7,70.1,29.91,East,90,5.8,5.8,98,0.06,CLR,,0.59,WeatherDisplay:10.37,2013-06-18 14:16:00,
2013-06-18 10:21:00,70.9,70.3,29.91,SW,225,5.8,5.8,98,0.06,CLR,,0.59,WeatherDisplay:10.37,2013-06-18 14:21:00,
2013-06-18 10:26:00,71.1,70.5,29.91,SW,225,6.9,6.9,98,0.06,CLR,,0.59,WeatherDisplay:10.37,2013-06-18 14:26:00,
2013-06-18 10:31:00,71.2,70.6,29.91,West,270,10.4,10.4,98,0.06,CLR,,0.59,WeatherDisplay:10.37,2013-06-18 14:31:00,
2013-06-18 10:36:00,71.2,70.6,29.91,South,180,8.1,8.1,98,0.06,CLR,,0.59,WeatherDisplay:10.37,2013-06-18 14:36:00,
2013-06-18 10:41:00,71.4,70.8,29.91,West,270,5.8,5.8,98,0.05,CLR,,0.59,WeatherDisplay:10.37,2013-06-18 14:41:00,
2013-06-18 10:46:00,71.6,70.7,29.91,West,270,2.3,2.3,97,0.01,CLR,,0.59,WeatherDisplay:10.37,2013-06-18 14:46:00,
2013-06-18 10:51:00,72.0,71.1,29.91,South,180,12.8,12.8,97,0.00,CLR,,0.59,WeatherDisplay:10.37,2013-06-18 14:51:00,
2013-06-18 10:56:00,72.3,71.4,29.91,SSW,202,5.8,5.8,97,0.00,CLR,,0.59,WeatherDisplay:10.37,2013-06-18 14:56:00,
2013-06-18 11:01:00,72.9,72.0,29.91,South,180,6.9,6.9,97,0.00,CLR,,0.59,WeatherDisplay:10.37,2013-06-18 15:01:00,
2013-06-18 11:06:00,73.4,73.1,29.91,SW,225,5.8,5.8,99,0.00,CLR,,0.59,WeatherDisplay:10.37,2013-06-18 15:06:00,
2013-06-18 11:11:00,73.9,73.6,29.91,West,270,11.5,11.5,99,0.00,CLR,,0.59,WeatherDisplay:10.37,2013-06-18 15:11:00,
2013-06-18 11:16:00,74.3,74.0,29.91,SE,135,11.5,11.5,99,0.00,CLR,,0.59,WeatherDisplay:10.37,2013-06-18 15:16:00,
2013-06-18 11:21:00,74.7,74.4,29.91,South,180,12.7,12.7,99,0.00,CLR,,0.59,WeatherDisplay:10.37,2013-06-18 15:21:00,
2013-06-18 11:26:00,75.4,74.8,29.91,SW,225,8.1,8.1,98,0.00,CLR,,0.59,WeatherDisplay:10.37,2013-06-18 15:26:00,
2013-06-18 11:31:00,75.2,74.0,29.91,South,180,8.1,8.1,96,0.00,CLR,,0.59,WeatherDisplay:10.37,2013-06-18 15:31:00,
2013-06-18 11:36:00,75.0,74.1,29.91,SW,225,6.9,6.9,97,0.00,CLR,,0.59,WeatherDisplay:10.37,2013-06-18 15:36:00,
2013-06-18 11:41:00,75.0,73.8,29.91,SW,225,6.9,6.9,96,0.00,CLR,,0.59,WeatherDisplay:10.37,2013-06-18 15:41:00,
2013-06-18 11:46:00,75.4,73.8,29.91,SW,225,8.1,8.1,95,0.00,CLR,,0.59,WeatherDisplay:10.37,2013-06-18 15:46:00,
2013-06-18 11:51:00,76.6,75.1,29.91,South,180,6.9,6.9,95,0.00,CLR,,0.59,WeatherDisplay:10.37,2013-06-18 15:51:00,
2013-06-18 11:56:00,77.2,75.0,29.90,West,270,10.4,10.4,93,0.00,CLR,,0.59,WeatherDisplay:10.37,2013-06-18 15:56:00,
2013-06-18 12:01:00,76.6,74.5,29.91,West,270,8.1,8.1,93,0.00,CLR,,0.59,WeatherDisplay:10.37,2013-06-18 16:01:00,
2013-06-18 12:06:00,76.6,74.5,29.91,South,180,8.1,8.1,93,0.00,CLR,,0.59,WeatherDisplay:10.37,2013-06-18 16:06:00,
2013-06-18 12:11:00,76.3,73.8,29.90,SW,225,13.8,13.8,92,0.00,CLR,,0.59,WeatherDisplay:10.37,2013-06-18 16:11:00,
2013-06-18 12:16:00,76.6,74.5,29.90,West,270,2.3,2.3,93,0.00,CLR,,0.59,WeatherDisplay:10.37,2013-06-18 16:16:00,
2013-06-18 12:21:00,76.8,74.3,29.90,SE,135,21.9,21.9,92,0.00,CLR,,0.59,WeatherDisplay:10.37,2013-06-18 16:21:00,
2013-06-18 12:26:00,77.0,74.2,29.90,SSW,202,11.4,11.4,91,0.00,CLR,,0.59,WeatherDisplay:10.37,2013-06-18 16:26:00,
2013-06-18 12:31:00,77.0,73.8,29.90,SW,225,12.7,12.7,90,0.00,CLR,,0.59,WeatherDisplay:10.37,2013-06-18 16:31:00,
2013-06-18 12:36:00,77.2,74.0,29.90,SW,225,10.4,10.4,90,0.00,CLR,,0.59,WeatherDisplay:10.37,2013-06-18 16:36:00,
2013-06-18 12:41:00,77.0,73.8,29.90,South,180,6.9,6.9,90,0.00,CLR,,0.59,WeatherDisplay:10.37,2013-06-18 16:41:00,
2013-06-18 12:46:00,76.5,73.3,29.90,NW,315,4.6,4.6,90,0.00,CLR,,0.59,WeatherDisplay:10.37,2013-06-18 16:46:00,
2013-06-18 12:51:00,76.1,73.3,29.90,West,270,4.6,4.6,91,0.02,RA,,0.61,WeatherDisplay:10.37,2013-06-18 16:51:00,
2013-06-18 12:56:00,75.6,73.1,29.89,NW,315,0.0,0.0,92,0.02,RA,,0.63,WeatherDisplay:10.37,2013-06-18 16:56:00,
2013-06-18 13:01:00,75.0,73.5,29.89,North,0,1.1,0.0,95,0.07,RA,,0.66,WeatherDisplay:10.37,2013-06-18 17:01:00,
2013-06-18 13:06:00,74.7,73.1,29.89,NW,315,0.0,0.0,95,0.09,RA,,0.69,WeatherDisplay:10.37,2013-06-18 17:06:00,
2013-06-18 13:11:00,74.1,72.9,29.90,SW,225,4.6,4.6,96,0.14,RA,,0.73,WeatherDisplay:10.37,2013-06-18 17:11:00,
2013-06-18 13:16:00,73.6,72.4,29.89,West,270,2.3,0.0,96,0.17,RA,,0.76,WeatherDisplay:10.37,2013-06-18 17:16:00,
2013-06-18 13:21:00,73.4,72.2,29.89,SW,225,2.3,2.3,96,0.17,RA,,0.76,WeatherDisplay:10.37,2013-06-18 17:21:00,
2013-06-18 13:26:00,73.0,71.8,29.90,SW,225,4.6,4.6,96,0.17,CLR,,0.76,WeatherDisplay:10.37,2013-06-18 17:26:00,
2013-06-18 13:31:00,73.0,71.8,29.89,SW,225,2.3,2.3,96,0.17,CLR,,0.76,WeatherDisplay:10.37,2013-06-18 17:31:00,
2013-06-18 13:36:00,73.0,71.8,29.89,NW,315,1.1,0.0,96,0.17,CLR,,0.76,WeatherDisplay:10.37,2013-06-18 17:36:00,
2013-06-18 13:41:00,73.8,72.9,29.89,SW,225,2.3,0.0,97,0.17,CLR,,0.76,WeatherDisplay:10.37,2013-06-18 17:41:00,
2013-06-18 13:46:00,74.8,74.2,29.89,South,180,4.6,4.6,98,0.17,CLR,,0.76,WeatherDisplay:10.37,2013-06-18 17:46:00,
2013-06-18 13:51:00,75.9,75.0,29.89,North,0,1.1,0.0,97,0.15,RA,,0.77,WeatherDisplay:10.37,2013-06-18 17:51:00,
2013-06-18 13:56:00,77.2,76.0,29.89,South,180,4.6,4.6,96,0.15,RA,,0.77,WeatherDisplay:10.37,2013-06-18 17:56:00,
2013-06-18 14:01:00,77.0,75.5,29.89,NW,315,4.6,4.6,95,0.11,CLR,,0.77,WeatherDisplay:10.37,2013-06-18 18:01:00,
2013-06-18 14:06:00,77.0,75.1,29.89,North,0,2.3,0.0,94,0.08,CLR,,0.77,WeatherDisplay:10.37,2013-06-18 18:06:00,
2013-06-18 14:11:00,77.2,75.3,29.89,SW,225,2.3,0.0,94,0.04,CLR,,0.77,WeatherDisplay:10.37,2013-06-18 18:11:00,
2013-06-18 14:16:00,77.5,75.4,29.89,SE,135,2.3,2.3,93,0.01,CLR,,0.77,WeatherDisplay:10.37,2013-06-18 18:16:00,
2013-06-18 14:21:00,78.3,76.1,29.88,SW,225,4.6,4.6,93,0.01,CLR,,0.77,WeatherDisplay:10.37,2013-06-18 18:21:00,
2013-06-18 14:26:00,79.2,76.6,29.88,South,180,2.3,2.3,92,0.01,CLR,,0.77,WeatherDisplay:10.37,2013-06-18 18:26:00,
2013-06-18 14:31:00,78.8,75.6,29.89,NE,45,6.9,6.9,90,0.01,CLR,,0.77,WeatherDisplay:10.37,2013-06-18 18:31:00,
2013-06-18 14:36:00,78.1,74.9,29.89,South,180,5.8,5.8,90,0.01,CLR,,0.77,WeatherDisplay:10.37,2013-06-18 18:36:00,
2013-06-18 14:41:00,77.0,73.5,29.89,SW,225,1.1,0.0,89,0.01,CLR,,0.77,WeatherDisplay:10.37,2013-06-18 18:41:00,
2013-06-18 14:46:00,76.3,73.1,29.89,North,0,0.0,0.0,90,0.01,CLR,,0.77,WeatherDisplay:10.37,2013-06-18 18:46:00,
2013-06-18 14:51:00,76.1,73.6,29.89,NW,315,4.6,4.6,92,0.00,CLR,,0.77,WeatherDisplay:10.37,2013-06-18 18:51:00,
2013-06-18 14:56:00,76.5,74.3,29.89,NE,45,0.0,0.0,93,0.00,CLR,,0.77,WeatherDisplay:10.37,2013-06-18 18:56:00,
2013-06-18 15:01:00,77.7,75.5,29.89,North,0,2.3,2.3,93,0.00,CLR,,0.77,WeatherDisplay:10.37,2013-06-18 19:01:00,
2013-06-18 15:06:00,79.0,76.5,29.88,WSW,248,5.8,5.8,92,0.00,CLR,,0.77,WeatherDisplay:10.37,2013-06-18 19:06:00,
2013-06-18 15:11:00,79.3,76.5,29.89,West,270,1.1,0.0,91,0.00,CLR,,0.77,WeatherDisplay:10.37,2013-06-18 19:11:00,
2013-06-18 15:16:00,78.6,75.4,29.88,East,90,8.1,8.1,90,0.00,CLR,,0.77,WeatherDisplay:10.37,2013-06-18 19:16:00,
2013-06-18 15:21:00,78.1,74.6,29.89,North,0,4.6,4.6,89,0.00,CLR,,0.77,WeatherDisplay:10.37,2013-06-18 19:21:00,
2013-06-18 15:26:00,78.3,75.1,29.89,North,0,4.6,4.6,90,0.00,CLR,,0.77,WeatherDisplay:10.37,2013-06-18 19:26:00,
2013-06-18 15:31:00,79.0,75.5,29.89,NE,45,8.4,8.4,89,0.00,CLR,,0.77,WeatherDisplay:10.37,2013-06-18 19:31:00,
2013-06-18 15:36:00,79.3,74.8,29.88,South,180,6.9,7.0,86,0.00,CLR,,0.77,WeatherDisplay:10.37,2013-06-18 19:36:00,
2013-06-18 15:41:00,80.1,75.5,29.89,North,0,8.1,8.1,86,0.01,RA,,0.78,WeatherDisplay:10.37,2013-06-18 19:41:00,
2013-06-18 15:46:00,80.8,75.5,29.88,East,90,2.3,2.7,84,0.01,RA,,0.78,WeatherDisplay:10.37,2013-06-18 19:46:00,
2013-06-18 15:51:00,81.1,75.8,29.89,SE,135,6.9,6.9,84,0.01,,,0.78,WeatherDisplay:10.37,2013-06-18 19:51:00,
2013-06-18 15:56:00,81.3,75.7,29.89,North,0,8.1,8.1,83,0.01,CLR,,0.78,WeatherDisplay:10.37,2013-06-18 19:56:00,
2013-06-18 16:01:00,81.9,76.2,29.89,SW,225,2.3,2.3,83,0.01,CLR,,0.78,WeatherDisplay:10.37,2013-06-18 20:01:00,
2013-06-18 16:06:00,81.5,75.8,29.89,North,0,4.6,4.6,83,0.01,CLR,,0.78,WeatherDisplay:10.37,2013-06-18 20:06:00,
2013-06-18 16:11:00,81.1,75.5,29.89,NE,45,4.6,4.6,83,0.01,CLR,,0.78,WeatherDisplay:10.37,2013-06-18 20:11:00,
2013-06-18 16:16:00,81.7,76.4,29.89,North,0,5.8,5.8,84,0.01,CLR,,0.78,WeatherDisplay:10.37,2013-06-18 20:16:00,
2013-06-18 16:21:00,81.3,75.7,29.89,NE,45,6.9,6.9,83,0.01,CLR,,0.78,WeatherDisplay:10.37,2013-06-18 20:21:00,
2013-06-18 16:26:00,80.6,75.0,29.89,West,270,2.3,2.3,83,0.01,CLR,,0.78,WeatherDisplay:10.37,2013-06-18 20:26:00,
2013-06-18 16:31:00,79.9,74.3,29.89,NE,45,8.1,8.1,83,0.01,CLR,,0.78,WeatherDisplay:10.37,2013-06-18 20:31:00,
2013-06-18 16:36:00,79.0,73.7,29.89,North,0,2.3,0.0,84,0.01,CLR,,0.78,WeatherDisplay:10.37,2013-06-18 20:36:00,
2013-06-18 16:41:00,78.3,73.7,29.89,East,90,5.8,5.8,86,0.00,CLR,,0.78,WeatherDisplay:10.37,2013-06-18 20:41:00,
2013-06-18 16:46:00,77.5,73.0,29.90,SW,225,4.6,4.6,86,0.00,CLR,,0.78,WeatherDisplay:10.37,2013-06-18 20:46:00,
2013-06-18 16:51:00,76.8,73.0,29.90,North,0,4.6,4.6,88,0.00,CLR,,0.78,WeatherDisplay:10.37,2013-06-18 20:51:00,
2013-06-18 16:56:00,76.3,72.8,29.90,North,0,1.1,0.0,89,0.00,CLR,,0.78,WeatherDisplay:10.37,2013-06-18 20:56:00,
2013-06-18 17:01:00,76.1,73.0,29.90,North,0,0.0,0.0,90,0.00,CLR,,0.78,WeatherDisplay:10.37,2013-06-18 21:01:00,
2013-06-18 17:06:00,75.7,72.9,29.90,North,0,1.1,0.0,91,0.00,CLR,,0.78,WeatherDisplay:10.37,2013-06-18 21:06:00,
2013-06-18 17:11:00,75.7,72.9,29.90,NE,45,0.0,1.3,91,0.00,CLR,,0.78,WeatherDisplay:10.37,2013-06-18 21:11:00,
2013-06-18 17:16:00,75.7,73.2,29.90,North,0,2.3,2.3,92,0.00,CLR,,0.78,WeatherDisplay:10.37,2013-06-18 21:16:00,
2013-06-18 17:21:00,75.6,73.1,29.90,NE,45,4.6,5.7,92,0.00,CLR,,0.78,WeatherDisplay:10.37,2013-06-18 21:21:00,
2013-06-18 17:26:00,75.7,73.2,29.90,North,0,2.3,4.4,92,0.00,CLR,,0.78,WeatherDisplay:10.37,2013-06-18 21:26:00,
2013-06-18 17:31:00,75.7,72.9,29.90,North,0,2.3,0.0,91,0.00,CLR,,0.78,WeatherDisplay:10.37,2013-06-18 21:31:00,
2013-06-18 17:36:00,75.7,72.9,29.89,SW,225,2.3,0.0,91,0.00,CLR,,0.78,WeatherDisplay:10.37,2013-06-18 21:36:00,
2013-06-18 17:41:00,75.6,72.4,29.90,North,0,2.7,0.0,90,0.00,CLR,,0.78,WeatherDisplay:10.37,2013-06-18 21:41:00,
2013-06-18 17:46:00,75.6,72.4,29.90,North,0,4.6,4.6,90,0.00,CLR,,0.78,WeatherDisplay:10.37,2013-06-18 21:46:00,
2013-06-18 17:51:00,75.7,72.9,29.90,North,0,5.8,0.0,91,0.00,CLR,,0.78,WeatherDisplay:10.37,2013-06-18 21:51:00,
2013-06-18 17:56:00,75.7,72.9,29.89,North,0,6.9,6.9,91,0.00,CLR,,0.78,WeatherDisplay:10.37,2013-06-18 21:56:00,
2013-06-18 18:01:00,76.1,73.3,29.89,NE,45,2.3,2.3,91,0.00,CLR,,0.78,WeatherDisplay:10.37,2013-06-18 22:01:00,
2013-06-18 18:06:00,76.3,73.5,29.89,North,0,2.3,0.0,91,0.00,CLR,,0.78,WeatherDisplay:10.37,2013-06-18 22:06:00,
2013-06-18 18:11:00,76.1,73.0,29.89,North,0,2.3,2.3,90,0.00,CLR,,0.78,WeatherDisplay:10.37,2013-06-18 22:11:00,
2013-06-18 18:16:00,75.7,72.6,29.89,NW,315,2.7,2.7,90,0.00,CLR,,0.78,WeatherDisplay:10.37,2013-06-18 22:16:00,
2013-06-18 18:21:00,75.7,72.6,29.88,NE,45,0.0,0.0,90,0.00,CLR,,0.78,WeatherDisplay:10.37,2013-06-18 22:21:00,
2013-06-18 18:26:00,75.6,72.7,29.88,NW,315,1.1,0.0,91,0.00,CLR,,0.78,WeatherDisplay:10.37,2013-06-18 22:26:00,
2013-06-18 18:31:00,75.4,72.2,29.88,East,90,2.3,0.0,90,0.00,CLR,,0.78,WeatherDisplay:10.37,2013-06-18 22:31:00,
2013-06-18 18:36:00,75.4,72.2,29.88,East,90,0.0,0.0,90,0.00,CLR,,0.78,WeatherDisplay:10.37,2013-06-18 22:36:00,
2013-06-18 18:41:00,75.4,72.6,29.88,East,90,0.0,0.0,91,0.00,CLR,,0.78,WeatherDisplay:10.37,2013-06-18 22:41:00,
2013-06-18 18:46:00,75.4,72.6,29.88,North,0,0.0,0.0,91,0.00,CLR,,0.78,WeatherDisplay:10.37,2013-06-18 22:46:00,
2013-06-18 18:51:00,75.6,72.4,29.88,North,0,4.6,4.6,90,0.00,CLR,,0.78,WeatherDisplay:10.37,2013-06-18 22:51:00,
2013-06-18 18:56:00,75.6,72.4,29.88,NE,45,6.9,6.9,90,0.00,CLR,,0.78,WeatherDisplay:10.37,2013-06-18 22:56:00,
2013-06-18 19:01:00,75.6,72.4,29.88,SW,225,4.6,4.6,90,0.00,CLR,,0.78,WeatherDisplay:10.37,2013-06-18 23:01:00,
2013-06-18 19:06:00,75.4,72.2,29.88,NW,315,1.1,0.0,90,0.00,CLR,,0.78,WeatherDisplay:10.37,2013-06-18 23:06:00,
2013-06-18 19:11:00,75.2,72.1,29.89,SW,225,1.1,0.0,90,0.00,CLR,,0.78,WeatherDisplay:10.37,2013-06-18 23:11:00,
2013-06-18 19:16:00,75.2,72.1,29.89,WSW,248,1.3,0.0,90,0.00,CLR,,0.78,WeatherDisplay:10.37,2013-06-18 23:16:00,
2013-06-18 19:21:00,74.8,72.0,29.88,North,0,2.3,0.0,91,0.00,CLR,,0.78,WeatherDisplay:10.37,2013-06-18 23:21:00,
2013-06-18 19:26:00,74.7,71.9,29.88,West,270,0.0,0.0,91,0.00,CLR,,0.78,WeatherDisplay:10.37,2013-06-18 23:26:00,
2013-06-18 19:31:00,74.5,72.0,29.89,North,0,1.1,0.0,92,0.00,CLR,,0.78,WeatherDisplay:10.37,2013-06-18 23:31:00,
2013-06-18 19:36:00,74.3,71.8,29.89,NW,315,0.0,2.7,92,0.00,CLR,,0.78,WeatherDisplay:10.37,2013-06-18 23:36:00,
2013-06-18 19:41:00,73.9,71.8,29.89,North,0,1.1,0.0,93,0.00,CLR,,0.78,WeatherDisplay:10.37,2013-06-18 23:41:00,
2013-06-18 19:46:00,73.8,71.6,29.89,North,0,0.0,0.0,93,0.00,CLR,,0.78,WeatherDisplay:10.37,2013-06-18 23:46:00,
2013-06-18 19:51:00,73.6,71.7,29.89,North,0,0.0,0.0,94,0.00,CLR,,0.78,WeatherDisplay:10.37,2013-06-18 23:51:00,
2013-06-18 19:56:00,73.4,71.6,29.90,North,0,0.0,0.0,94,0.00,CLR,,0.78,WeatherDisplay:10.37,2013-06-18 23:56:00,
2013-06-18 20:01:00,73.2,71.1,29.90,North,0,0.0,0.0,93,0.00,CLR,,0.78,WeatherDisplay:10.37,2013-06-19 00:01:00,
2013-06-18 20:06:00,73.0,71.2,29.89,North,0,0.0,0.0,94,0.00,CLR,,0.78,WeatherDisplay:10.37,2013-06-19 00:06:00,
2013-06-18 20:11:00,72.9,71.0,29.90,North,0,0.0,0.0,94,0.00,CLR,,0.78,WeatherDisplay:10.37,2013-06-19 00:11:00,
2013-06-18 20:16:00,72.9,71.0,29.90,North,0,0.0,0.0,94,0.00,CLR,,0.78,WeatherDisplay:10.37,2013-06-19 00:16:00,
2013-06-18 20:21:00,72.7,71.2,29.90,West,270,0.0,0.0,95,0.00,CLR,,0.78,WeatherDisplay:10.37,2013-06-19 00:21:00,
2013-06-18 20:26:00,72.5,71.0,29.91,West,270,0.0,0.0,95,0.00,CLR,,0.78,WeatherDisplay:10.37,2013-06-19 00:26:00,
2013-06-18 20:31:00,72.5,71.0,29.91,West,270,0.0,0.0,95,0.00,CLR,,0.78,WeatherDisplay:10.37,2013-06-19 00:31:00,
2013-06-18 20:36:00,72.1,70.6,29.91,North,0,0.0,0.0,95,0.00,CLR,,0.78,WeatherDisplay:10.37,2013-06-19 00:36:00,
2013-06-18 20:41:00,72.1,70.9,29.91,North,0,0.0,0.0,96,0.00,CLR,,0.78,WeatherDisplay:10.37,2013-06-19 00:41:00,
2013-06-18 20:46:00,72.1,70.9,29.92,NW,315,0.0,0.0,96,0.00,CLR,,0.78,WeatherDisplay:10.37,2013-06-19 00:46:00,
2013-06-18 20:51:00,72.0,70.8,29.91,NW,315,0.0,0.0,96,0.00,CLR,,0.78,WeatherDisplay:10.37,2013-06-19 00:51:00,
2013-06-18 20:56:00,71.8,70.6,29.91,NW,315,0.0,0.0,96,0.00,CLR,,0.78,WeatherDisplay:10.37,2013-06-19 00:56:00,
2013-06-18 21:01:00,71.6,70.4,29.92,NW,315,0.0,0.0,96,0.00,CLR,,0.78,WeatherDisplay:10.37,2013-06-19 01:01:00,
2013-06-18 21:06:00,71.2,70.3,29.92,NW,315,0.0,0.0,97,0.00,CLR,,0.78,WeatherDisplay:10.37,2013-06-19 01:06:00,
2013-06-18 21:11:00,70.9,70.3,29.92,NW,315,0.0,0.0,98,0.00,CLR,,0.78,WeatherDisplay:10.37,2013-06-19 01:11:00,
2013-06-18 21:16:00,70.9,70.3,29.92,NW,315,0.0,0.0,98,0.00,CLR,,0.78,WeatherDisplay:10.37,2013-06-19 01:16:00,
2013-06-18 21:21:00,70.5,69.9,29.93,NW,315,0.0,0.0,98,0.00,CLR,,0.78,WeatherDisplay:10.37,2013-06-19 01:21:00,
2013-06-18 21:26:00,70.3,69.7,29.93,NW,315,0.0,0.0,98,0.00,CLR,,0.78,WeatherDisplay:10.37,2013-06-19 01:26:00,
2013-06-18 21:31:00,70.2,69.6,29.93,NW,315,0.0,0.0,98,0.00,CLR,,0.78,WeatherDisplay:10.37,2013-06-19 01:31:00,
2013-06-18 21:36:00,70.0,69.4,29.93,NW,315,0.0,0.0,98,0.00,CLR,,0.78,WeatherDisplay:10.37,2013-06-19 01:36:00,
2013-06-18 21:41:00,69.8,69.2,29.93,NW,315,0.0,0.0,98,0.00,CLR,,0.78,WeatherDisplay:10.37,2013-06-19 01:41:00,
2013-06-18 21:46:00,69.4,69.1,29.93,NW,315,0.0,0.0,99,0.00,CLR,,0.78,WeatherDisplay:10.37,2013-06-19 01:46:00,
2013-06-18 21:51:00,69.3,69.0,29.93,NW,315,0.0,0.0,99,0.00,CLR,,0.78,WeatherDisplay:10.37,2013-06-19 01:51:00,
2013-06-18 21:56:00,69.1,68.8,29.93,NW,315,0.0,0.0,99,0.00,CLR,,0.78,WeatherDisplay:10.37,2013-06-19 01:56:00,
2013-06-18 22:01:00,68.9,68.6,29.94,NW,315,0.0,0.0,99,0.00,CLR,,0.78,WeatherDisplay:10.37,2013-06-19 02:01:00,
2013-06-18 22:06:00,68.9,68.6,29.94,NW,315,0.0,0.0,99,0.00,CLR,,0.78,WeatherDisplay:10.37,2013-06-19 02:06:00,
2013-06-18 22:11:00,68.7,68.4,29.94,NW,315,0.0,0.0,99,0.00,CLR,,0.78,WeatherDisplay:10.37,2013-06-19 02:11:00,
2013-06-18 22:16:00,68.5,68.2,29.94,NW,315,0.0,0.0,99,0.00,CLR,,0.78,WeatherDisplay:10.37,2013-06-19 02:16:00,
2013-06-18 22:21:00,68.5,68.2,29.94,NW,315,0.0,0.0,99,0.00,CLR,,0.78,WeatherDisplay:10.37,2013-06-19 02:21:00,
2013-06-18 22:26:00,68.4,68.1,29.95,NW,315,0.0,0.0,99,0.00,CLR,,0.78,WeatherDisplay:10.37,2013-06-19 02:26:00,
2013-06-18 22:31:00,68.4,68.1,29.95,NW,315,0.0,0.0,99,0.00,CLR,,0.78,WeatherDisplay:10.37,2013-06-19 02:31:00,
2013-06-18 22:36:00,68.2,67.9,29.95,NW,315,0.0,0.0,99,0.00,CLR,,0.78,WeatherDisplay:10.37,2013-06-19 02:36:00,
2013-06-18 22:41:00,68.2,67.9,29.95,NW,315,0.0,0.0,99,0.00,CLR,,0.78,WeatherDisplay:10.37,2013-06-19 02:41:00,
2013-06-18 22:46:00,68.0,67.7,29.95,NW,315,0.0,0.0,99,0.00,CLR,,0.78,WeatherDisplay:10.37,2013-06-19 02:46:00,
2013-06-18 22:51:00,67.8,67.5,29.96,NW,315,0.0,0.0,99,0.00,CLR,,0.78,WeatherDisplay:10.37,2013-06-19 02:51:00,
2013-06-18 22:56:00,67.6,67.3,29.95,NW,315,0.0,0.0,99,0.00,CLR,,0.78,WeatherDisplay:10.37,2013-06-19 02:56:00,
2013-06-18 23:01:00,67.6,67.3,29.95,NW,315,0.0,0.0,99,0.00,CLR,,0.78,WeatherDisplay:10.37,2013-06-19 03:01:00,
2013-06-18 23:06:00,67.5,67.2,29.96,NW,315,0.0,0.0,99,0.00,CLR,,0.78,WeatherDisplay:10.37,2013-06-19 03:06:00,
2013-06-18 23:11:00,67.3,67.0,29.96,NW,315,0.0,0.0,99,0.00,CLR,,0.78,WeatherDisplay:10.37,2013-06-19 03:11:00,
2013-06-18 23:16:00,67.3,67.0,29.96,NW,315,0.0,0.0,99,0.00,CLR,,0.78,WeatherDisplay:10.37,2013-06-19 03:16:00,
2013-06-18 23:21:00,67.3,67.0,29.96,North,0,0.0,0.0,99,0.00,CLR,,0.78,WeatherDisplay:10.37,2013-06-19 03:21:00,
2013-06-18 23:26:00,67.1,66.8,29.95,North,0,0.0,0.0,99,0.00,CLR,,0.78,WeatherDisplay:10.37,2013-06-19 03:26:00,
2013-06-18 23:31:00,66.9,66.6,29.95,North,0,0.0,0.0,99,0.00,CLR,,0.78,WeatherDisplay:10.37,2013-06-19 03:31:00,
2013-06-18 23:36:00,66.7,66.5,29.95,North,0,0.0,0.0,99,0.00,CLR,,0.78,WeatherDisplay:10.37,2013-06-19 03:36:00,
2013-06-18 23:41:00,66.7,66.5,29.96,North,0,0.0,0.0,99,0.00,CLR,,0.78,WeatherDisplay:10.37,2013-06-19 03:41:00,
2013-06-18 23:46:00,66.7,66.5,29.96,North,0,0.0,0.0,99,0.00,CLR,,0.78,WeatherDisplay:10.37,2013-06-19 03:46:00,
2013-06-18 23:51:00,66.7,66.5,29.95,North,0,0.0,0.0,99,0.00,CLR,,0.78,WeatherDisplay:10.37,2013-06-19 03:51:00,
2013-06-18 23:56:00,66.6,66.3,29.96,North,0,0.0,0.0,99,0.00,CLR,,0.78,WeatherDisplay:10.37,2013-06-19 03:56:00,